createdAt,value
2022-08-28T00:00:00.973Z,21.33
2022-08-28T00:03:11.374Z,21.29
2022-08-28T00:06:04.810Z,21.25
2022-08-28T00:08:57.439Z,21.23
2022-08-28T00:11:50.456Z,21.20
2022-08-28T00:14:42.854Z,21.16
2022-08-28T00:17:34.513Z,21.12
2022-08-28T00:20:31.424Z,21.04
2022-08-28T00:23:23.858Z,20.99
2022-08-28T00:26:38.209Z,20.96
2022-08-28T00:29:32.283Z,20.94
2022-08-28T00:32:25.579Z,20.92
2022-08-28T00:35:18.621Z,20.90
2022-08-28T00:38:11.530Z,20.86
2022-08-28T00:41:05.983Z,20.83
2022-08-28T00:44:11.971Z,20.80
2022-08-28T00:47:05.278Z,20.76
2022-08-28T00:49:59.484Z,20.72
2022-08-28T00:52:55.597Z,20.69
2022-08-28T00:55:50.543Z,20.63
2022-08-28T00:58:45.186Z,20.61
2022-08-28T01:01:38.966Z,20.59
2022-08-28T01:04:33.281Z,20.57
2022-08-28T01:07:27.135Z,20.54
2022-08-28T01:10:23.177Z,20.52
2022-08-28T01:13:16.438Z,20.48
2022-08-28T01:16:10.534Z,20.44
2022-08-28T01:19:03.210Z,20.42
2022-08-28T01:22:02.112Z,20.37
2022-08-28T01:24:57.614Z,20.34
2022-08-28T01:27:50.244Z,20.32
2022-08-28T01:30:44.668Z,20.28
2022-08-28T01:33:37.319Z,20.27
2022-08-28T01:36:34.723Z,20.22
2022-08-28T01:39:28.354Z,20.19
2022-08-28T01:42:21.389Z,20.15
2022-08-28T01:45:18.479Z,20.13
2022-08-28T01:48:15.733Z,20.10
2022-08-28T01:51:08.304Z,20.06
2022-08-28T01:53:59.748Z,20.05
2022-08-28T01:56:52.304Z,20.01
2022-08-28T01:59:44.727Z,19.99
2022-08-28T02:02:36.777Z,19.97
2022-08-28T02:05:31.323Z,19.96
2022-08-28T02:08:23.912Z,19.92
2022-08-28T02:11:17.245Z,19.92
2022-08-28T02:14:09.546Z,19.90
2022-08-28T02:17:02.906Z,19.89
2022-08-28T02:19:55.839Z,19.88
2022-08-28T02:22:48.840Z,19.86
2022-08-28T02:25:41.228Z,19.83
2022-08-28T02:28:34.080Z,19.79
2022-08-28T02:31:26.532Z,19.74
2022-08-28T02:34:18.929Z,19.68
2022-08-28T02:37:13.532Z,19.63
2022-08-28T02:40:07.272Z,19.61
2022-08-28T02:43:00.643Z,19.61
2022-08-28T02:45:52.640Z,19.59
2022-08-28T02:48:45.966Z,19.58
2022-08-28T02:51:37.750Z,19.57
2022-08-28T02:54:30.649Z,19.56
2022-08-28T02:57:22.416Z,19.53
2022-08-28T03:00:15.896Z,19.52
2022-08-28T03:03:07.898Z,19.48
2022-08-28T03:06:01.448Z,19.46
2022-08-28T03:08:54.096Z,19.44
2022-08-28T03:11:46.403Z,19.43
2022-08-28T03:14:39.787Z,19.40
2022-08-28T03:17:32.283Z,19.37
2022-08-28T03:20:24.616Z,19.35
2022-08-28T03:23:29.720Z,19.31
2022-08-28T03:26:24.183Z,19.28
2022-08-28T03:29:16.787Z,19.25
2022-08-28T03:32:09.189Z,19.23
2022-08-28T03:35:01.328Z,19.20
2022-08-28T03:37:51.150Z,19.18
2022-08-28T03:40:54.526Z,19.15
2022-08-28T03:43:47.363Z,19.13
2022-08-28T03:46:40.465Z,19.11
2022-08-28T03:49:33.300Z,19.09
2022-08-28T03:52:25.892Z,19.08
2022-08-28T03:55:20.267Z,19.06
2022-08-28T03:58:19.061Z,19.06
2022-08-28T04:01:12.398Z,19.04
2022-08-28T04:04:04.791Z,19.05
2022-08-28T04:06:57.628Z,19.04
2022-08-28T04:09:50.585Z,19.03
2022-08-28T04:12:44.005Z,19.04
2022-08-28T04:15:36.502Z,19.04
2022-08-28T04:18:29.165Z,19.05
2022-08-28T04:21:23.900Z,19.06
2022-08-28T04:24:16.490Z,19.07
2022-08-28T04:27:08.974Z,19.08
2022-08-28T04:29:59.427Z,19.09
2022-08-28T04:32:51.948Z,19.11
2022-08-28T04:35:43.903Z,19.11
2022-08-28T04:38:38.329Z,19.14
2022-08-28T04:41:34.727Z,19.18
2022-08-28T04:44:27.316Z,19.22
2022-08-28T04:47:21.706Z,19.26
2022-08-28T04:50:15.249Z,19.32
2022-08-28T04:53:07.907Z,19.37
2022-08-28T04:56:00.970Z,19.43
2022-08-28T04:58:53.059Z,19.50
2022-08-28T05:01:44.887Z,19.56
2022-08-28T05:04:36.798Z,19.61
2022-08-28T05:07:27.106Z,19.67
2022-08-28T05:10:19.351Z,19.75
2022-08-28T05:13:12.744Z,19.81
2022-08-28T05:16:06.951Z,19.88
2022-08-28T05:19:03.146Z,19.95
2022-08-28T05:21:55.509Z,20.04
2022-08-28T05:24:48.019Z,20.12
2022-08-28T05:27:41.004Z,20.21
2022-08-28T05:30:34.000Z,20.28
2022-08-28T05:33:25.984Z,20.37
2022-08-28T05:36:19.814Z,20.46
2022-08-28T05:39:14.188Z,20.56
2022-08-28T05:42:10.200Z,20.64
2022-08-28T05:45:02.375Z,20.77
2022-08-28T05:47:54.904Z,20.87
2022-08-28T05:50:48.164Z,20.98
2022-08-28T05:53:41.719Z,21.08
2022-08-28T05:56:37.046Z,21.20
2022-08-28T05:59:29.132Z,21.33
2022-08-28T06:02:21.363Z,21.46
2022-08-28T06:05:14.988Z,21.59
2022-08-28T06:08:07.039Z,21.73
2022-08-28T06:11:00.079Z,21.87
2022-08-28T06:13:52.667Z,22.00
2022-08-28T06:16:47.333Z,22.15
2022-08-28T06:19:41.664Z,22.29
2022-08-28T06:22:34.347Z,22.45
2022-08-28T06:25:26.793Z,22.58
2022-08-28T06:28:22.531Z,22.73
2022-08-28T06:31:24.335Z,22.87
2022-08-28T06:34:18.111Z,23.01
2022-08-28T06:37:10.465Z,23.17
2022-08-28T06:40:03.291Z,23.34
2022-08-28T06:42:55.381Z,23.49
2022-08-28T06:45:48.911Z,23.64
2022-08-28T06:48:41.072Z,23.78
2022-08-28T06:51:34.605Z,23.92
2022-08-28T06:54:27.486Z,24.08
2022-08-28T06:57:19.627Z,24.21
2022-08-28T07:00:14.896Z,24.36
2022-08-28T07:03:09.682Z,24.51
2022-08-28T07:06:03.247Z,24.68
2022-08-28T07:08:55.222Z,24.83
2022-08-28T07:11:49.415Z,25.00
2022-08-28T07:14:41.443Z,25.14
2022-08-28T07:17:33.970Z,25.27
2022-08-28T07:20:25.843Z,25.39
2022-08-28T07:23:18.152Z,25.51
2022-08-28T07:26:15.189Z,25.65
2022-08-28T07:29:10.486Z,25.79
2022-08-28T07:32:04.266Z,25.98
2022-08-28T07:34:57.360Z,26.14
2022-08-28T07:37:50.543Z,26.30
2022-08-28T07:40:42.727Z,26.47
2022-08-28T07:43:52.279Z,26.63
2022-08-28T07:46:45.848Z,26.83
2022-08-28T07:49:39.348Z,27.03
2022-08-28T07:52:31.861Z,27.22
2022-08-28T07:55:23.890Z,27.44
2022-08-28T07:58:16.227Z,27.63
2022-08-28T08:01:09.326Z,27.84
2022-08-28T08:04:02.540Z,28.04
2022-08-28T08:06:58.031Z,28.23
2022-08-28T08:09:51.035Z,28.44
2022-08-28T08:12:44.790Z,28.66
2022-08-28T08:15:38.353Z,28.89
2022-08-28T08:18:30.140Z,29.08
2022-08-28T08:21:28.292Z,29.23
2022-08-28T08:24:26.187Z,29.41
2022-08-28T08:27:18.774Z,29.59
2022-08-28T08:30:13.981Z,29.76
2022-08-28T08:33:06.680Z,29.94
2022-08-28T08:35:58.848Z,30.14
2022-08-28T08:38:59.356Z,30.33
2022-08-28T08:41:54.914Z,30.54
2022-08-28T08:44:49.230Z,30.73
2022-08-28T08:47:46.345Z,30.93
2022-08-28T08:50:39.244Z,31.12
2022-08-28T08:53:43.356Z,31.32
2022-08-28T08:56:35.842Z,31.50
2022-08-28T08:59:30.537Z,31.69
2022-08-28T09:02:31.413Z,31.87
2022-08-28T09:05:29.262Z,32.07
2022-08-28T09:08:29.072Z,32.25
2022-08-28T09:11:31.928Z,32.44
2022-08-28T09:14:34.445Z,32.59
2022-08-28T09:17:32.413Z,32.78
2022-08-28T09:20:33.416Z,32.95
2022-08-28T09:23:29.907Z,33.11
2022-08-28T09:26:26.288Z,33.24
2022-08-28T09:29:25.317Z,33.40
2022-08-28T09:32:24.122Z,33.53
2022-08-28T09:35:29.228Z,33.69
2022-08-28T09:38:27.635Z,33.84
2022-08-28T09:41:39.122Z,33.98
2022-08-28T09:44:31.181Z,34.15
2022-08-28T09:47:48.921Z,34.29
2022-08-28T09:50:43.583Z,34.45
2022-08-28T09:53:39.213Z,34.61
2022-08-28T09:56:33.603Z,34.72
2022-08-28T09:59:29.235Z,34.85
2022-08-28T10:02:30.662Z,34.97
2022-08-28T10:05:36.362Z,35.07
2022-08-28T10:08:40.939Z,35.19
2022-08-28T10:11:43.491Z,35.34
2022-08-28T10:14:52.248Z,35.45
2022-08-28T10:17:56.535Z,35.56
2022-08-28T10:20:58.836Z,35.63
2022-08-28T10:24:09.098Z,35.65
2022-08-28T10:27:07.456Z,35.69
2022-08-28T10:30:12.492Z,35.78
2022-08-28T10:33:21.646Z,35.83
2022-08-28T10:36:33.911Z,35.88
2022-08-28T10:39:38.480Z,35.97
2022-08-28T10:42:36.529Z,36.06
2022-08-28T10:45:31.485Z,36.19
2022-08-28T10:48:30.550Z,36.29
2022-08-28T10:51:35.393Z,36.40
2022-08-28T10:54:32.510Z,36.52
2022-08-28T10:57:39.437Z,36.61
2022-08-28T11:00:34.162Z,36.69
2022-08-28T11:03:35.907Z,36.77
2022-08-28T11:06:32.267Z,36.77
2022-08-28T11:09:34.167Z,36.84
2022-08-28T11:12:43.820Z,36.92
2022-08-28T11:15:52.053Z,36.98
2022-08-28T11:19:15.735Z,37.00
2022-08-28T11:22:15.294Z,37.06
2022-08-28T11:25:16.869Z,37.04
2022-08-28T11:28:22.665Z,37.01
2022-08-28T11:31:37.638Z,36.99
2022-08-28T11:35:00.913Z,36.97
2022-08-28T11:37:55.066Z,36.93
2022-08-28T11:41:11.855Z,36.84
2022-08-28T11:44:28.541Z,36.84
2022-08-28T11:47:57.002Z,36.83
2022-08-28T11:51:02.456Z,36.90
2022-08-28T11:54:03.955Z,36.99
2022-08-28T11:57:10.554Z,37.12
2022-08-28T12:00:22.161Z,37.24
2022-08-28T12:03:16.916Z,37.34
2022-08-28T12:06:10.750Z,37.40
2022-08-28T12:09:07.219Z,37.48
2022-08-28T12:12:01.608Z,37.51
2022-08-28T12:15:08.071Z,37.58
2022-08-28T12:18:02.606Z,37.63
2022-08-28T12:21:07.190Z,37.68
2022-08-28T12:24:09.898Z,37.75
2022-08-28T12:27:07.831Z,37.77
2022-08-28T12:30:02.317Z,37.82
2022-08-28T12:33:02.133Z,37.91
2022-08-28T12:35:54.515Z,37.86
2022-08-28T12:38:53.445Z,37.82
2022-08-28T12:41:46.693Z,37.82
2022-08-28T12:44:39.217Z,37.85
2022-08-28T12:47:32.533Z,37.84
2022-08-28T12:50:34.347Z,37.85
2022-08-28T12:53:26.158Z,37.84
2022-08-28T12:56:22.383Z,37.82
2022-08-28T12:59:36.329Z,37.78
2022-08-28T13:02:33.896Z,37.74
2022-08-28T13:05:34.310Z,37.67
2022-08-28T13:08:26.678Z,37.57
2022-08-28T13:11:23.209Z,37.48
2022-08-28T13:14:17.432Z,37.40
2022-08-28T13:17:09.751Z,37.40
2022-08-28T13:20:08.953Z,37.41
2022-08-28T13:23:02.639Z,37.42
2022-08-28T13:26:06.325Z,37.44
2022-08-28T13:28:59.540Z,37.43
2022-08-28T13:32:00.561Z,37.38
2022-08-28T13:35:30.036Z,37.38
2022-08-28T13:38:25.036Z,37.40
2022-08-28T13:41:17.212Z,37.38
2022-08-28T13:44:09.934Z,37.33
2022-08-28T13:47:03.367Z,37.38
2022-08-28T13:49:56.726Z,37.47
2022-08-28T13:52:48.646Z,37.56
2022-08-28T13:55:41.542Z,37.62
2022-08-28T13:58:34.578Z,37.65
2022-08-28T14:01:48.677Z,37.67
2022-08-28T14:04:40.945Z,37.67
2022-08-28T14:07:32.615Z,37.66
2022-08-28T14:10:25.626Z,37.67
2022-08-28T14:13:17.537Z,37.65
2022-08-28T14:16:14.161Z,37.65
2022-08-28T14:19:06.719Z,37.61
2022-08-28T14:21:59.431Z,37.55
2022-08-28T14:24:52.525Z,37.49
2022-08-28T14:27:44.513Z,37.46
2022-08-28T14:30:36.723Z,37.42
2022-08-28T14:33:28.692Z,37.37
2022-08-28T14:36:28.821Z,37.28
2022-08-28T14:39:20.462Z,37.28
2022-08-28T14:42:13.375Z,37.19
2022-08-28T14:45:06.632Z,37.05
2022-08-28T14:47:58.240Z,36.99
2022-08-28T14:50:51.726Z,37.00
2022-08-28T14:53:44.981Z,36.99
2022-08-28T14:56:37.590Z,36.94
2022-08-28T14:59:32.642Z,36.92
2022-08-28T15:02:25.276Z,36.91
2022-08-28T15:05:17.393Z,36.88
2022-08-28T15:08:13.482Z,36.83
2022-08-28T15:11:09.004Z,36.82
2022-08-28T15:14:01.512Z,36.73
2022-08-28T15:16:53.910Z,36.69
2022-08-28T15:19:46.609Z,36.63
2022-08-28T15:22:38.867Z,36.59
2022-08-28T15:25:31.991Z,36.52
2022-08-28T15:28:24.819Z,36.45
2022-08-28T15:31:17.246Z,36.42
2022-08-28T15:34:13.659Z,36.38
2022-08-28T15:37:07.895Z,36.34
2022-08-28T15:40:14.473Z,36.23
2022-08-28T15:43:07.010Z,36.14
2022-08-28T15:45:58.947Z,36.08
2022-08-28T15:48:54.450Z,35.99
2022-08-28T15:51:48.110Z,35.88
2022-08-28T15:54:40.196Z,35.81
2022-08-28T15:57:32.584Z,35.75
2022-08-28T16:00:25.347Z,35.68
2022-08-28T16:03:18.091Z,35.59
2022-08-28T16:06:20.355Z,35.47
2022-08-28T16:09:13.894Z,35.38
2022-08-28T16:12:07.642Z,35.27
2022-08-28T16:14:59.848Z,35.17
2022-08-28T16:17:52.797Z,35.06
2022-08-28T16:20:46.355Z,34.93
2022-08-28T16:23:39.035Z,34.83
2022-08-28T16:26:31.648Z,34.71
2022-08-28T16:29:23.349Z,34.59
2022-08-28T16:32:15.630Z,34.46
2022-08-28T16:35:11.960Z,34.32
2022-08-28T16:38:04.871Z,34.18
2022-08-28T16:40:57.245Z,34.04
2022-08-28T16:43:50.927Z,33.89
2022-08-28T16:46:44.340Z,33.73
2022-08-28T16:49:37.257Z,33.59
2022-08-28T16:52:29.954Z,33.44
2022-08-28T16:55:22.316Z,33.30
2022-08-28T16:58:16.958Z,33.15
2022-08-28T17:01:10.742Z,33.00
2022-08-28T17:04:03.565Z,32.84
2022-08-28T17:06:55.822Z,32.69
2022-08-28T17:09:49.954Z,32.52
2022-08-28T17:12:42.820Z,32.36
2022-08-28T17:15:35.047Z,32.19
2022-08-28T17:18:27.065Z,31.98
2022-08-28T17:21:37.643Z,31.74
2022-08-28T17:24:31.421Z,31.44
2022-08-28T17:27:23.660Z,31.16
2022-08-28T17:30:19.199Z,30.99
2022-08-28T17:33:12.009Z,30.86
2022-08-28T17:36:04.478Z,30.74
2022-08-28T17:38:56.546Z,30.62
2022-08-28T17:41:48.728Z,30.50
2022-08-28T17:44:41.182Z,30.38
2022-08-28T17:47:33.306Z,30.25
2022-08-28T17:50:25.816Z,30.12
2022-08-28T17:53:17.433Z,30.01
2022-08-28T17:56:11.642Z,29.87
2022-08-28T17:59:04.573Z,29.75
2022-08-28T18:01:57.262Z,29.63
2022-08-28T18:04:50.276Z,29.50
2022-08-28T18:07:43.259Z,29.37
2022-08-28T18:10:36.259Z,29.24
2022-08-28T18:13:29.058Z,29.12
2022-08-28T18:16:21.784Z,28.99
2022-08-28T18:19:16.565Z,28.86
2022-08-28T18:22:10.412Z,28.74
2022-08-28T18:25:04.294Z,28.63
2022-08-28T18:27:56.501Z,28.51
2022-08-28T18:30:50.636Z,28.40
2022-08-28T18:33:54.543Z,28.29
2022-08-28T18:36:49.239Z,28.18
2022-08-28T18:39:42.311Z,28.09
2022-08-28T18:42:38.810Z,27.99
2022-08-28T18:45:32.163Z,27.88
2022-08-28T18:48:24.774Z,27.79
2022-08-28T18:51:21.770Z,27.69
2022-08-28T18:54:15.999Z,27.58
2022-08-28T18:57:09.325Z,27.48
2022-08-28T19:00:04.184Z,27.38
2022-08-28T19:02:57.231Z,27.27
2022-08-28T19:05:49.980Z,27.19
2022-08-28T19:08:42.636Z,27.08
2022-08-28T19:11:35.997Z,26.99
2022-08-28T19:14:27.871Z,26.89
2022-08-28T19:17:21.151Z,26.81
2022-08-28T19:20:20.559Z,26.74
2022-08-28T19:23:17.249Z,26.65
2022-08-28T19:26:09.961Z,26.56
2022-08-28T19:29:01.728Z,26.47
2022-08-28T19:31:54.356Z,26.40
2022-08-28T19:34:47.208Z,26.31
2022-08-28T19:37:42.643Z,26.19
2022-08-28T19:40:36.062Z,26.08
2022-08-28T19:43:43.123Z,26.01
2022-08-28T19:46:40.187Z,25.90
2022-08-28T19:49:32.492Z,25.83
2022-08-28T19:52:25.197Z,25.76
2022-08-28T19:55:20.933Z,25.69
2022-08-28T19:58:12.685Z,25.63
2022-08-28T20:01:05.905Z,25.57
2022-08-28T20:03:58.361Z,25.49
2022-08-28T20:06:51.326Z,25.44
2022-08-28T20:09:43.385Z,25.38
2022-08-28T20:12:35.398Z,25.31
2022-08-28T20:15:27.810Z,25.24
2022-08-28T20:18:20.307Z,25.17
2022-08-28T20:21:14.535Z,25.10
2022-08-28T20:24:08.718Z,25.05
2022-08-28T20:27:01.066Z,24.97
2022-08-28T20:29:52.909Z,24.92
2022-08-28T20:32:45.560Z,24.85
2022-08-28T20:35:38.283Z,24.79
2022-08-28T20:38:32.605Z,24.72
2022-08-28T20:41:25.761Z,24.61
2022-08-28T20:44:19.989Z,24.55
2022-08-28T20:47:12.555Z,24.48
2022-08-28T20:50:04.503Z,24.40
2022-08-28T20:52:57.144Z,24.35
2022-08-28T20:55:50.448Z,24.29
2022-08-28T20:58:42.326Z,24.24
2022-08-28T21:01:34.079Z,24.17
2022-08-28T21:04:25.097Z,24.11
2022-08-28T21:07:20.258Z,24.04
2022-08-28T21:10:14.762Z,23.98
2022-08-28T21:13:07.769Z,23.93
2022-08-28T21:15:59.941Z,23.89
2022-08-28T21:19:14.474Z,23.85
2022-08-28T21:22:06.638Z,23.80
2022-08-28T21:24:59.080Z,23.76
2022-08-28T21:27:52.056Z,23.69
2022-08-28T21:30:44.954Z,23.65
2022-08-28T21:33:36.947Z,23.59
2022-08-28T21:36:29.142Z,23.55
2022-08-28T21:39:22.243Z,23.50
2022-08-28T21:42:14.563Z,23.43
2022-08-28T21:45:12.010Z,23.37
2022-08-28T21:48:05.379Z,23.30
2022-08-28T21:50:59.332Z,23.27
2022-08-28T21:53:55.475Z,23.24
2022-08-28T21:56:48.310Z,23.20
2022-08-28T21:59:48.591Z,23.18
2022-08-28T22:02:41.114Z,23.14
2022-08-28T22:05:33.220Z,23.10
2022-08-28T22:08:25.160Z,23.04
2022-08-28T22:11:24.507Z,23.00
2022-08-28T22:14:17.460Z,22.97
2022-08-28T22:17:11.802Z,22.94
2022-08-28T22:20:04.583Z,22.91
2022-08-28T22:23:12.571Z,22.90
2022-08-28T22:26:07.463Z,22.86
2022-08-28T22:29:00.373Z,22.83
2022-08-28T22:31:52.996Z,22.80
2022-08-28T22:34:47.433Z,22.77
2022-08-28T22:37:39.962Z,22.75
2022-08-28T22:40:33.281Z,22.70
2022-08-28T22:43:26.410Z,22.67
2022-08-28T22:46:19.090Z,22.64
2022-08-28T22:49:11.610Z,22.60
2022-08-28T22:52:04.907Z,22.54
2022-08-28T22:54:57.045Z,22.52
2022-08-28T22:57:48.417Z,22.48
2022-08-28T23:00:42.129Z,22.43
2022-08-28T23:03:35.553Z,22.39
2022-08-28T23:06:27.991Z,22.35
2022-08-28T23:09:20.461Z,22.29
2022-08-28T23:12:12.918Z,22.24
2022-08-28T23:15:06.337Z,22.20
2022-08-28T23:17:58.893Z,22.18
2022-08-28T23:20:54.444Z,22.15
2022-08-28T23:23:46.474Z,22.12
2022-08-28T23:26:36.760Z,22.08
2022-08-28T23:29:28.829Z,22.05
2022-08-28T23:32:21.198Z,22.00
2022-08-28T23:35:15.555Z,21.96
2022-08-28T23:38:07.972Z,21.93
2022-08-28T23:41:02.256Z,21.91
2022-08-28T23:43:55.060Z,21.87
2022-08-28T23:46:49.890Z,21.85
2022-08-28T23:49:42.902Z,21.82
2022-08-28T23:52:35.831Z,21.79
2022-08-28T23:55:28.491Z,21.76
2022-08-28T23:58:22.480Z,21.74
